sensor_id;sensor_type;location;lat;lon;timestamp;pressure;altitude;pressure_sealevel;temperature;humidity
40502;BME280;29631;49.168;9.848;2022-12-07T00:01:24;96648.56;;;10.06;86.56
40502;BME280;29631;49.168;9.848;2022-12-07T00:03:53;96646.97;;;10.12;86.85
40502;BME280;29631;49.168;9.848;2022-12-07T00:06:20;96654.69;;;10.19;86.11
40502;BME280;29631;49.168;9.848;2022-12-07T00:08:47;96655.06;;;10.16;85.97
40502;BME280;29631;49.168;9.848;2022-12-07T00:11:17;96658.72;;;10.15;86.27
40502;BME280;29631;49.168;9.848;2022-12-07T00:13:43;96657.50;;;10.18;87.08
40502;BME280;29631;49.168;9.848;2022-12-07T00:16:13;96648.59;;;10.13;86.37
40502;BME280;29631;49.168;9.848;2022-12-07T00:18:40;96628.75;;;10.10;86.85
40502;BME280;29631;49.168;9.848;2022-12-07T00:21:20;96623.88;;;10.07;86.04
40502;BME280;29631;49.168;9.848;2022-12-07T00:23:48;96631.38;;;10.16;86.33
40502;BME280;29631;49.168;9.848;2022-12-07T00:26:26;96623.88;;;10.13;86.25
40502;BME280;29631;49.168;9.848;2022-12-07T00:28:55;96624.06;;;10.12;86.37
40502;BME280;29631;49.168;9.848;2022-12-07T00:31:24;96638.66;;;10.14;86.90
40502;BME280;29631;49.168;9.848;2022-12-07T00:33:51;96623.47;;;10.04;86.61
40502;BME280;29631;49.168;9.848;2022-12-07T00:36:20;96626.28;;;10.09;86.30
40502;BME280;29631;49.168;9.848;2022-12-07T00:38:46;96647.38;;;10.15;86.00
40502;BME280;29631;49.168;9.848;2022-12-07T00:41:15;96629.94;;;10.08;86.01
40502;BME280;29631;49.168;9.848;2022-12-07T00:43:43;96630.56;;;10.03;86.16
40502;BME280;29631;49.168;9.848;2022-12-07T00:46:10;96631.16;;;10.05;87.06
40502;BME280;29631;49.168;9.848;2022-12-07T00:48:36;96637.81;;;10.08;86.80
40502;BME280;29631;49.168;9.848;2022-12-07T00:51:03;96622.25;;;10.00;86.59
40502;BME280;29631;49.168;9.848;2022-12-07T00:53:29;96617.75;;;9.94;87.12
40502;BME280;29631;49.168;9.848;2022-12-07T00:55:55;96622.59;;;9.97;86.62
40502;BME280;29631;49.168;9.848;2022-12-07T00:58:22;96641.28;;;10.08;87.03
40502;BME280;29631;49.168;9.848;2022-12-07T01:00:48;96610.03;;;9.92;86.49
40502;BME280;29631;49.168;9.848;2022-12-07T01:03:16;96626.09;;;10.04;86.78
40502;BME280;29631;49.168;9.848;2022-12-07T01:05:53;96631.34;;;10.04;86.47
40502;BME280;29631;49.168;9.848;2022-12-07T01:08:20;96634.19;;;10.09;86.23
40502;BME280;29631;49.168;9.848;2022-12-07T01:10:47;96594.22;;;9.79;86.62
40502;BME280;29631;49.168;9.848;2022-12-07T01:13:13;96637.81;;;10.08;86.61
40502;BME280;29631;49.168;9.848;2022-12-07T01:15:43;96634.00;;;10.04;86.63
40502;BME280;29631;49.168;9.848;2022-12-07T01:18:10;96650.63;;;10.17;86.15
40502;BME280;29631;49.168;9.848;2022-12-07T01:20:37;96622.84;;;10.02;86.08
40502;BME280;29631;49.168;9.848;2022-12-07T01:23:03;96642.09;;;10.09;86.13
40502;BME280;29631;49.168;9.848;2022-12-07T01:25:29;96597.06;;;9.78;86.75
40502;BME280;29631;49.168;9.848;2022-12-07T01:27:54;96642.50;;;9.99;86.34
40502;BME280;29631;49.168;9.848;2022-12-07T01:30:20;96632.31;;;9.90;86.74
40502;BME280;29631;49.168;9.848;2022-12-07T01:32:46;96645.34;;;10.04;86.67
40502;BME280;29631;49.168;9.848;2022-12-07T01:35:12;96643.31;;;10.00;86.02
40502;BME280;29631;49.168;9.848;2022-12-07T01:37:39;96646.53;;;10.02;85.86
40502;BME280;29631;49.168;9.848;2022-12-07T01:40:08;96640.84;;;9.98;86.41
40502;BME280;29631;49.168;9.848;2022-12-07T01:42:34;96625.03;;;9.85;86.39
40502;BME280;29631;49.168;9.848;2022-12-07T01:47:51;96653.00;;;9.93;85.66
40502;BME280;29631;49.168;9.848;2022-12-07T01:50:19;96652.38;;;9.91;85.83
40502;BME280;29631;49.168;9.848;2022-12-07T01:52:48;96622.19;;;9.74;86.31
40502;BME280;29631;49.168;9.848;2022-12-07T01:55:17;96636.19;;;9.81;85.73
40502;BME280;29631;49.168;9.848;2022-12-07T01:57:48;96647.31;;;9.89;85.99
40502;BME280;29631;49.168;9.848;2022-12-07T02:00:15;96629.88;;;9.82;85.18
40502;BME280;29631;49.168;9.848;2022-12-07T02:03:08;96635.97;;;9.89;85.69
40502;BME280;29631;49.168;9.848;2022-12-07T02:05:37;96636.38;;;9.86;85.18
40502;BME280;29631;49.168;9.848;2022-12-07T02:08:04;96634.75;;;9.85;85.49
40502;BME280;29631;49.168;9.848;2022-12-07T02:10:31;96615.31;;;9.73;84.68
40502;BME280;29631;49.168;9.848;2022-12-07T02:13:24;96636.75;;;9.83;85.62
40502;BME280;29631;49.168;9.848;2022-12-07T02:19:24;96635.56;;;9.79;85.79
40502;BME280;29631;49.168;9.848;2022-12-07T02:22:37;96636.97;;;9.75;85.87
40502;BME280;29631;49.168;9.848;2022-12-07T02:28:07;96633.91;;;9.65;85.17
40502;BME280;29631;49.168;9.848;2022-12-07T02:30:43;96628.44;;;9.60;85.32
40502;BME280;29631;49.168;9.848;2022-12-07T02:33:33;96623.56;;;9.57;85.63
40502;BME280;29631;49.168;9.848;2022-12-07T02:36:06;96632.09;;;9.65;84.38
40502;BME280;29631;49.168;9.848;2022-12-07T02:38:51;96603.09;;;9.46;85.93
40502;BME280;29631;49.168;9.848;2022-12-07T02:41:25;96632.09;;;9.65;85.73
40502;BME280;29631;49.168;9.848;2022-12-07T02:43:57;96626.00;;;9.65;84.71
40502;BME280;29631;49.168;9.848;2022-12-07T02:46:32;96607.97;;;9.49;84.29
40502;BME280;29631;49.168;9.848;2022-12-07T02:49:00;96592.34;;;9.35;84.11
40502;BME280;29631;49.168;9.848;2022-12-07T02:51:30;96588.47;;;9.24;83.98
40502;BME280;29631;49.168;9.848;2022-12-07T02:53:56;96585.41;;;9.14;85.07
40502;BME280;29631;49.168;9.848;2022-12-07T03:11:21;96589.84;;;8.33;85.84
40502;BME280;29631;49.168;9.848;2022-12-07T03:13:59;96585.66;;;8.39;86.12
40502;BME280;29631;49.168;9.848;2022-12-07T03:16:45;96546.19;;;8.26;85.47
40502;BME280;29631;49.168;9.848;2022-12-07T03:19:18;96588.59;;;8.57;85.17
40502;BME280;29631;49.168;9.848;2022-12-07T03:21:55;96569.13;;;8.45;85.35
40502;BME280;29631;49.168;9.848;2022-12-07T03:24:27;96585.34;;;8.55;85.50
40502;BME280;29631;49.168;9.848;2022-12-07T03:29:45;96582.34;;;8.58;84.94
40502;BME280;29631;49.168;9.848;2022-12-07T03:32:32;96573.19;;;8.54;85.82
40502;BME280;29631;49.168;9.848;2022-12-07T03:40:37;96574.22;;;8.53;84.48
40502;BME280;29631;49.168;9.848;2022-12-07T03:43:05;96555.38;;;8.43;84.75
40502;BME280;29631;49.168;9.848;2022-12-07T03:45:44;96567.09;;;8.47;85.72
40502;BME280;29631;49.168;9.848;2022-12-07T03:48:36;96584.75;;;8.59;85.27
40502;BME280;29631;49.168;9.848;2022-12-07T03:51:28;96582.94;;;8.60;85.08
40502;BME280;29631;49.168;9.848;2022-12-07T03:54:30;96542.88;;;8.45;84.84
40502;BME280;29631;49.168;9.848;2022-12-07T03:56:58;96577.16;;;8.70;84.89
40502;BME280;29631;49.168;9.848;2022-12-07T03:59:25;96596.03;;;8.87;85.55
40502;BME280;29631;49.168;9.848;2022-12-07T04:02:01;96596.44;;;8.90;85.09
40502;BME280;29631;49.168;9.848;2022-12-07T04:04:27;96584.31;;;8.89;85.45
40502;BME280;29631;49.168;9.848;2022-12-07T04:06:53;96579.47;;;8.93;85.52
40502;BME280;29631;49.168;9.848;2022-12-07T04:09:19;96566.53;;;8.91;85.43
40502;BME280;29631;49.168;9.848;2022-12-07T04:11:45;96568.53;;;8.89;85.28
40502;BME280;29631;49.168;9.848;2022-12-07T04:14:11;96561.03;;;8.86;85.60
40502;BME280;29631;49.168;9.848;2022-12-07T04:16:51;96569.97;;;8.98;85.00
40502;BME280;29631;49.168;9.848;2022-12-07T04:19:19;96583.94;;;9.05;85.80
40502;BME280;29631;49.168;9.848;2022-12-07T04:21:46;96574.16;;;8.86;85.65
40502;BME280;29631;49.168;9.848;2022-12-07T04:24:14;96566.97;;;9.01;85.32
40502;BME280;29631;49.168;9.848;2022-12-07T04:26:41;96575.06;;;9.06;85.06
40502;BME280;29631;49.168;9.848;2022-12-07T04:29:07;96574.22;;;8.99;85.72
40502;BME280;29631;49.168;9.848;2022-12-07T04:31:34;96593.69;;;9.11;85.13
40502;BME280;29631;49.168;9.848;2022-12-07T04:34:00;96592.09;;;9.10;85.41
40502;BME280;29631;49.168;9.848;2022-12-07T04:36:26;96562.91;;;8.99;85.18
40502;BME280;29631;49.168;9.848;2022-12-07T04:38:54;96571.03;;;9.10;85.59
40502;BME280;29631;49.168;9.848;2022-12-07T04:41:21;96583.19;;;9.18;86.17
40502;BME280;29631;49.168;9.848;2022-12-07T04:43:56;96576.72;;;9.14;85.26
40502;BME280;29631;49.168;9.848;2022-12-07T04:46:24;96567.38;;;9.11;84.89
40502;BME280;29631;49.168;9.848;2022-12-07T04:48:52;96563.75;;;9.12;86.10
40502;BME280;29631;49.168;9.848;2022-12-07T04:51:25;96561.91;;;9.06;85.29
40502;BME280;29631;49.168;9.848;2022-12-07T04:53:51;96580.78;;;9.16;85.38
40502;BME280;29631;49.168;9.848;2022-12-07T04:56:18;96557.66;;;9.05;86.43
40502;BME280;29631;49.168;9.848;2022-12-07T04:58:46;96561.53;;;9.09;85.96
40502;BME280;29631;49.168;9.848;2022-12-07T05:01:14;96569.03;;;9.19;85.64
40502;BME280;29631;49.168;9.848;2022-12-07T05:03:40;96567.81;;;9.15;85.70
40502;BME280;29631;49.168;9.848;2022-12-07T05:06:06;96582.81;;;9.27;85.06
40502;BME280;29631;49.168;9.848;2022-12-07T05:08:33;96574.50;;;9.24;85.36
40502;BME280;29631;49.168;9.848;2022-12-07T05:11:01;96561.38;;;9.24;85.06
40502;BME280;29631;49.168;9.848;2022-12-07T05:13:27;96571.91;;;9.30;85.22
40502;BME280;29631;49.168;9.848;2022-12-07T05:15:52;96561.78;;;9.27;85.75
40502;BME280;29631;49.168;9.848;2022-12-07T05:18:18;96577.97;;;9.37;85.76
40502;BME280;29631;49.168;9.848;2022-12-07T05:20:44;96574.34;;;9.38;85.94
40502;BME280;29631;49.168;9.848;2022-12-07T05:23:11;96568.06;;;9.39;85.65
40502;BME280;29631;49.168;9.848;2022-12-07T05:25:37;96570.69;;;9.39;85.21
40502;BME280;29631;49.168;9.848;2022-12-07T05:28:04;96570.31;;;9.42;84.63
40502;BME280;29631;49.168;9.848;2022-12-07T05:30:30;96563.41;;;9.35;84.61
40502;BME280;29631;49.168;9.848;2022-12-07T05:32:57;96550.25;;;9.28;85.02
40502;BME280;29631;49.168;9.848;2022-12-07T05:35:23;96550.47;;;9.27;85.08
40502;BME280;29631;49.168;9.848;2022-12-07T05:37:49;96568.25;;;9.31;85.87
40502;BME280;29631;49.168;9.848;2022-12-07T05:40:16;96557.72;;;9.31;85.72
40502;BME280;29631;49.168;9.848;2022-12-07T05:42:42;96557.13;;;9.29;85.33
40502;BME280;29631;49.168;9.848;2022-12-07T05:45:09;96569.28;;;9.30;85.80
40502;BME280;29631;49.168;9.848;2022-12-07T05:47:35;96573.31;;;9.26;84.97
40502;BME280;29631;49.168;9.848;2022-12-07T05:50:01;96577.19;;;9.30;85.88
40502;BME280;29631;49.168;9.848;2022-12-07T05:52:27;96561.97;;;9.26;86.00
40502;BME280;29631;49.168;9.848;2022-12-07T05:54:53;96546.75;;;9.15;85.22
40502;BME280;29631;49.168;9.848;2022-12-07T05:57:19;96560.56;;;9.23;86.09
40502;BME280;29631;49.168;9.848;2022-12-07T05:59:44;96554.47;;;9.16;85.24
40502;BME280;29631;49.168;9.848;2022-12-07T06:02:13;96569.47;;;9.22;85.50
40502;BME280;29631;49.168;9.848;2022-12-07T06:04:45;96560.13;;;9.13;85.34
40502;BME280;29631;49.168;9.848;2022-12-07T06:07:14;96571.47;;;9.14;85.92
40502;BME280;29631;49.168;9.848;2022-12-07T06:09:40;96560.06;;;9.00;86.21
40502;BME280;29631;49.168;9.848;2022-12-07T06:12:08;96572.63;;;9.11;86.03
40502;BME280;29631;49.168;9.848;2022-12-07T06:14:53;96545.50;;;8.91;85.73
40502;BME280;29631;49.168;9.848;2022-12-07T06:17:19;96563.28;;;8.96;86.17
40502;BME280;29631;49.168;9.848;2022-12-07T06:19:44;96576.69;;;9.07;85.29
40502;BME280;29631;49.168;9.848;2022-12-07T06:22:10;96572.63;;;9.05;86.21
40502;BME280;29631;49.168;9.848;2022-12-07T06:24:38;96558.44;;;8.99;86.01
40502;BME280;29631;49.168;9.848;2022-12-07T06:27:04;96573.44;;;8.99;86.22
40502;BME280;29631;49.168;9.848;2022-12-07T06:29:30;96572.22;;;9.01;85.48
40502;BME280;29631;49.168;9.848;2022-12-07T06:31:56;96565.91;;;8.96;86.10
40502;BME280;29631;49.168;9.848;2022-12-07T06:34:23;96559.88;;;8.95;86.26
40502;BME280;29631;49.168;9.848;2022-12-07T06:36:50;96569.22;;;9.04;85.71
40502;BME280;29631;49.168;9.848;2022-12-07T06:39:21;96568.59;;;9.02;85.32
40502;BME280;29631;49.168;9.848;2022-12-07T06:41:47;96583.78;;;9.13;85.79
40502;BME280;29631;49.168;9.848;2022-12-07T06:44:13;96574.84;;;9.08;86.10
40502;BME280;29631;49.168;9.848;2022-12-07T06:46:39;96583.56;;;9.08;84.92
40502;BME280;29631;49.168;9.848;2022-12-07T06:49:05;96584.78;;;9.12;85.55
40502;BME280;29631;49.168;9.848;2022-12-07T06:51:32;96570.00;;;9.11;86.00
40502;BME280;29631;49.168;9.848;2022-12-07T06:53:58;96564.75;;;9.11;85.35
40502;BME280;29631;49.168;9.848;2022-12-07T06:56:24;96574.31;;;9.19;85.64
40502;BME280;29631;49.168;9.848;2022-12-07T06:58:50;96573.47;;;9.18;85.75
40502;BME280;29631;49.168;9.848;2022-12-07T07:01:18;96580.38;;;9.19;85.30
40502;BME280;29631;49.168;9.848;2022-12-07T07:03:45;96571.84;;;9.11;84.98
40502;BME280;29631;49.168;9.848;2022-12-07T07:06:12;96565.38;;;9.07;85.38
40502;BME280;29631;49.168;9.848;2022-12-07T07:08:38;96580.38;;;9.19;85.33
40502;BME280;29631;49.168;9.848;2022-12-07T07:11:05;96582.78;;;9.21;86.07
40502;BME280;29631;49.168;9.848;2022-12-07T07:13:30;96576.72;;;9.20;85.92
40502;BME280;29631;49.168;9.848;2022-12-07T07:15:56;96560.53;;;9.17;84.96
40502;BME280;29631;49.168;9.848;2022-12-07T07:18:22;96575.94;;;9.26;85.02
40502;BME280;29631;49.168;9.848;2022-12-07T07:20:50;96586.28;;;9.34;85.92
40502;BME280;29631;49.168;9.848;2022-12-07T07:23:16;96567.00;;;9.21;84.80
40502;BME280;29631;49.168;9.848;2022-12-07T07:25:42;96572.69;;;9.24;85.68
40502;BME280;29631;49.168;9.848;2022-12-07T07:28:07;96586.66;;;9.31;86.00
40502;BME280;29631;49.168;9.848;2022-12-07T07:30:33;96590.09;;;9.25;85.29
40502;BME280;29631;49.168;9.848;2022-12-07T07:33:01;96585.25;;;9.22;85.27
40502;BME280;29631;49.168;9.848;2022-12-07T07:35:29;96600.44;;;9.33;85.74
40502;BME280;29631;49.168;9.848;2022-12-07T07:37:55;96585.25;;;9.22;84.89
40502;BME280;29631;49.168;9.848;2022-12-07T07:40:21;96601.84;;;9.36;85.90
40502;BME280;29631;49.168;9.848;2022-12-07T07:42:49;96586.44;;;9.26;85.19
40502;BME280;29631;49.168;9.848;2022-12-07T07:45:14;96594.56;;;9.31;85.75
40502;BME280;29631;49.168;9.848;2022-12-07T07:47:40;96593.34;;;9.27;85.11
40502;BME280;29631;49.168;9.848;2022-12-07T07:50:06;96602.69;;;9.36;84.77
40502;BME280;29631;49.168;9.848;2022-12-07T07:52:32;96596.19;;;9.32;84.77
40502;BME280;29631;49.168;9.848;2022-12-07T07:54:58;96601.84;;;9.29;84.40
40502;BME280;29631;49.168;9.848;2022-12-07T07:57:24;96607.13;;;9.29;84.84
40502;BME280;29631;49.168;9.848;2022-12-07T07:59:49;96604.66;;;9.28;84.73
40502;BME280;29631;49.168;9.848;2022-12-07T08:02:17;96591.50;;;9.28;84.61
40502;BME280;29631;49.168;9.848;2022-12-07T08:04:44;96593.75;;;9.31;85.36
40502;BME280;29631;49.168;9.848;2022-12-07T08:07:12;96597.81;;;9.27;85.20
40502;BME280;29631;49.168;9.848;2022-12-07T08:09:38;96603.47;;;9.30;84.74
40502;BME280;29631;49.168;9.848;2022-12-07T08:12:04;96597.38;;;9.23;85.16
40502;BME280;29631;49.168;9.848;2022-12-07T08:14:29;96613.16;;;9.23;84.38
40502;BME280;29631;49.168;9.848;2022-12-07T08:16:55;96611.72;;;9.21;85.11
40502;BME280;29631;49.168;9.848;2022-12-07T08:19:21;96608.69;;;9.17;84.43
40502;BME280;29631;49.168;9.848;2022-12-07T08:21:47;96600.34;;;9.07;85.10
40502;BME280;29631;49.168;9.848;2022-12-07T08:24:13;96605.03;;;9.12;85.37
40502;BME280;29631;49.168;9.848;2022-12-07T08:26:40;96626.31;;;9.23;84.53
40502;BME280;29631;49.168;9.848;2022-12-07T08:29:06;96618.81;;;9.20;85.12
40502;BME280;29631;49.168;9.848;2022-12-07T08:31:31;96612.31;;;9.16;85.04
40502;BME280;29631;49.168;9.848;2022-12-07T08:33:57;96600.81;;;9.17;84.99
40502;BME280;29631;49.168;9.848;2022-12-07T08:36:23;96601.41;;;9.19;84.71
40502;BME280;29631;49.168;9.848;2022-12-07T08:38:49;96616.00;;;9.28;84.28
40502;BME280;29631;49.168;9.848;2022-12-07T08:41:15;96611.53;;;9.22;84.55
40502;BME280;29631;49.168;9.848;2022-12-07T08:43:41;96608.91;;;9.22;84.92
40502;BME280;29631;49.168;9.848;2022-12-07T08:46:39;96610.53;;;9.23;85.11
40502;BME280;29631;49.168;9.848;2022-12-07T08:49:16;96620.84;;;9.31;84.07
40502;BME280;29631;49.168;9.848;2022-12-07T08:51:43;96611.53;;;9.29;84.08
40502;BME280;29631;49.168;9.848;2022-12-07T08:54:13;96601.03;;;9.22;84.97
40502;BME280;29631;49.168;9.848;2022-12-07T08:56:40;96599.38;;;9.21;84.96
40502;BME280;29631;49.168;9.848;2022-12-07T08:59:07;96592.09;;;9.17;84.76
40502;BME280;29631;49.168;9.848;2022-12-07T09:01:34;96598.19;;;9.17;84.05
40502;BME280;29631;49.168;9.848;2022-12-07T09:04:00;96617.22;;;9.26;84.05
40502;BME280;29631;49.168;9.848;2022-12-07T09:06:26;96619.25;;;9.30;84.82
40502;BME280;29631;49.168;9.848;2022-12-07T09:08:56;96596.97;;;9.20;83.88
40502;BME280;29631;49.168;9.848;2022-12-07T09:11:23;96614.59;;;9.32;83.97
40502;BME280;29631;49.168;9.848;2022-12-07T09:13:49;96605.28;;;9.30;84.53
40502;BME280;29631;49.168;9.848;2022-12-07T09:16:14;96602.06;;;9.34;84.53
40502;BME280;29631;49.168;9.848;2022-12-07T09:18:40;96613.00;;;9.44;84.54
40502;BME280;29631;49.168;9.848;2022-12-07T09:21:07;96607.75;;;9.44;84.48
40502;BME280;29631;49.168;9.848;2022-12-07T09:23:33;96605.94;;;9.44;84.20
40502;BME280;29631;49.168;9.848;2022-12-07T09:26:04;96610.78;;;9.41;84.39
40502;BME280;29631;49.168;9.848;2022-12-07T09:28:33;96602.69;;;9.36;83.31
40502;BME280;29631;49.168;9.848;2022-12-07T09:30:59;96621.31;;;9.47;84.62
40502;BME280;29631;49.168;9.848;2022-12-07T09:33:25;96601.25;;;9.40;84.60
40502;BME280;29631;49.168;9.848;2022-12-07T09:35:52;96582.03;;;9.27;84.59
40502;BME280;29631;49.168;9.848;2022-12-07T09:38:19;96620.50;;;9.47;84.69
40502;BME280;29631;49.168;9.848;2022-12-07T09:40:45;96614.41;;;9.46;84.05
40502;BME280;29631;49.168;9.848;2022-12-07T09:43:19;96623.56;;;9.57;84.50
40502;BME280;29631;49.168;9.848;2022-12-07T09:45:49;96621.53;;;9.59;84.37
40502;BME280;29631;49.168;9.848;2022-12-07T09:48:36;96628.44;;;9.66;84.27
40502;BME280;29631;49.168;9.848;2022-12-07T09:51:18;96616.91;;;9.61;84.80
40502;BME280;29631;49.168;9.848;2022-12-07T09:53:45;96603.50;;;9.56;84.00
40502;BME280;29631;49.168;9.848;2022-12-07T09:56:16;96626.63;;;9.67;84.48
40502;BME280;29631;49.168;9.848;2022-12-07T09:58:43;96629.06;;;9.68;83.87
40502;BME280;29631;49.168;9.848;2022-12-07T10:03:59;96609.19;;;9.53;83.99
40502;BME280;29631;49.168;9.848;2022-12-07T10:06:26;96606.94;;;9.50;84.03
40502;BME280;29631;49.168;9.848;2022-12-07T10:08:52;96612.81;;;9.52;83.94
40502;BME280;29631;49.168;9.848;2022-12-07T10:11:17;96597.84;;;9.46;84.75
40502;BME280;29631;49.168;9.848;2022-12-07T10:13:51;96594.19;;;9.47;83.91
40502;BME280;29631;49.168;9.848;2022-12-07T10:16:32;96577.19;;;9.37;84.79
40502;BME280;29631;49.168;9.848;2022-12-07T10:22:17;96598.88;;;9.51;84.20
40502;BME280;29631;49.168;9.848;2022-12-07T10:24:46;96595.41;;;9.51;85.28
40502;BME280;29631;49.168;9.848;2022-12-07T10:27:30;96579.22;;;9.41;84.00
40502;BME280;29631;49.168;9.848;2022-12-07T10:29:58;96591.38;;;9.55;85.00
40502;BME280;29631;49.168;9.848;2022-12-07T10:32:34;96591.78;;;9.52;84.85
40502;BME280;29631;49.168;9.848;2022-12-07T10:35:29;96587.72;;;9.49;83.86
40502;BME280;29631;49.168;9.848;2022-12-07T10:37:59;96574.16;;;9.46;84.59
40502;BME280;29631;49.168;9.848;2022-12-07T10:40:36;96567.06;;;9.40;84.83
40502;BME280;29631;49.168;9.848;2022-12-07T10:49:20;96573.16;;;9.47;85.03
40502;BME280;29631;49.168;9.848;2022-12-07T10:51:57;96584.09;;;9.57;85.17
40502;BME280;29631;49.168;9.848;2022-12-07T10:57:46;96550.88;;;9.30;84.42
40502;BME280;29631;49.168;9.848;2022-12-07T11:00:24;96565.44;;;9.39;84.83
40502;BME280;29631;49.168;9.848;2022-12-07T11:06:26;96572.16;;;9.48;85.25
40502;BME280;29631;49.168;9.848;2022-12-07T11:12:25;96541.53;;;9.28;84.23
40502;BME280;29631;49.168;9.848;2022-12-07T11:18:07;96557.34;;;9.40;84.38
40502;BME280;29631;49.168;9.848;2022-12-07T11:21:06;96551.66;;;9.37;85.01
40502;BME280;29631;49.168;9.848;2022-12-07T11:23:56;96558.59;;;9.44;85.22
40502;BME280;29631;49.168;9.848;2022-12-07T11:26:57;96565.88;;;9.49;85.10
40502;BME280;29631;49.168;9.848;2022-12-07T11:32:46;96544.00;;;9.42;85.63
40502;BME280;29631;49.168;9.848;2022-12-07T11:38:35;96531.03;;;9.34;85.03
40502;BME280;29631;49.168;9.848;2022-12-07T11:41:02;96531.66;;;9.36;84.78
40502;BME280;29631;49.168;9.848;2022-12-07T11:47:06;96543.59;;;9.45;84.94
40502;BME280;29631;49.168;9.848;2022-12-07T11:52:52;96542.78;;;9.44;84.77
40502;BME280;29631;49.168;9.848;2022-12-07T12:06:39;96519.28;;;9.43;85.76
40502;BME280;29631;49.168;9.848;2022-12-07T12:09:29;96525.38;;;9.50;85.18
40502;BME280;29631;49.168;9.848;2022-12-07T12:20:32;96517.31;;;9.51;85.77
40502;BME280;29631;49.168;9.848;2022-12-07T12:26:05;96510.22;;;9.52;85.10
40502;BME280;29631;49.168;9.848;2022-12-07T12:34:02;96495.03;;;9.54;85.74
40502;BME280;29631;49.168;9.848;2022-12-07T12:54:31;96486.53;;;9.52;85.48
40502;BME280;29631;49.168;9.848;2022-12-07T12:57:20;96494.41;;;9.52;85.62
40502;BME280;29631;49.168;9.848;2022-12-07T13:02:38;96483.31;;;9.56;86.23
40502;BME280;29631;49.168;9.848;2022-12-07T13:08:17;96492.19;;;9.68;86.40
40502;BME280;29631;49.168;9.848;2022-12-07T13:10:47;96472.16;;;9.61;85.82
40502;BME280;29631;49.168;9.848;2022-12-07T13:18:41;96476.41;;;9.68;85.24
40502;BME280;29631;49.168;9.848;2022-12-07T13:26:18;96461.03;;;9.59;85.96
40502;BME280;29631;49.168;9.848;2022-12-07T13:28:51;96461.66;;;9.61;85.39
40502;BME280;29631;49.168;9.848;2022-12-07T13:31:46;96473.97;;;9.67;85.11
40502;BME280;29631;49.168;9.848;2022-12-07T13:34:32;96456.56;;;9.59;85.70
40502;BME280;29631;49.168;9.848;2022-12-07T13:39:51;96421.16;;;9.42;85.99
40502;BME280;29631;49.168;9.848;2022-12-07T13:42:35;96460.81;;;9.73;86.42
40502;BME280;29631;49.168;9.848;2022-12-07T13:45:26;96459.81;;;9.68;85.59
40502;BME280;29631;49.168;9.848;2022-12-07T13:48:33;96470.94;;;9.70;85.12
40502;BME280;29631;49.168;9.848;2022-12-07T13:51:03;96458.00;;;9.62;85.96
40502;BME280;29631;49.168;9.848;2022-12-07T13:53:29;96471.53;;;9.72;85.18
40502;BME280;29631;49.168;9.848;2022-12-07T13:56:00;96452.53;;;9.63;85.96
40502;BME280;29631;49.168;9.848;2022-12-07T13:58:31;96462.22;;;9.63;85.45
40502;BME280;29631;49.168;9.848;2022-12-07T14:00:58;96467.50;;;9.69;85.25
40502;BME280;29631;49.168;9.848;2022-12-07T14:03:34;96459.22;;;9.66;85.59
40502;BME280;29631;49.168;9.848;2022-12-07T14:06:20;96439.16;;;9.52;86.23
40502;BME280;29631;49.168;9.848;2022-12-07T14:08:47;96426.44;;;9.49;85.33
40502;BME280;29631;49.168;9.848;2022-12-07T14:11:18;96453.34;;;9.70;85.50
40502;BME280;29631;49.168;9.848;2022-12-07T14:14:00;96460.00;;;9.79;85.38
40502;BME280;29631;49.168;9.848;2022-12-07T14:16:35;96453.31;;;9.77;86.55
40502;BME280;29631;49.168;9.848;2022-12-07T14:19:45;96471.31;;;9.86;85.17
40502;BME280;29631;49.168;9.848;2022-12-07T14:22:34;96474.78;;;9.87;85.59
40502;BME280;29631;49.168;9.848;2022-12-07T14:25:19;96478.59;;;9.91;85.13
40502;BME280;29631;49.168;9.848;2022-12-07T14:27:57;96456.13;;;9.82;85.53
40502;BME280;29631;49.168;9.848;2022-12-07T14:30:30;96463.25;;;9.88;85.51
40502;BME280;29631;49.168;9.848;2022-12-07T14:33:02;96455.75;;;9.85;85.44
40502;BME280;29631;49.168;9.848;2022-12-07T14:35:29;96470.09;;;9.95;86.23
40502;BME280;29631;49.168;9.848;2022-12-07T14:37:56;96482.06;;;9.98;86.12
40502;BME280;29631;49.168;9.848;2022-12-07T14:40:28;96463.44;;;9.93;85.88
40502;BME280;29631;49.168;9.848;2022-12-07T14:43:00;96465.88;;;10.01;85.75
40502;BME280;29631;49.168;9.848;2022-12-07T14:45:26;96447.63;;;9.99;86.04
40502;BME280;29631;49.168;9.848;2022-12-07T14:47:52;96458.56;;;10.03;85.29
40502;BME280;29631;49.168;9.848;2022-12-07T14:50:20;96453.72;;;10.00;85.95
40502;BME280;29631;49.168;9.848;2022-12-07T14:52:59;96451.09;;;10.00;84.97
40502;BME280;29631;49.168;9.848;2022-12-07T14:55:29;96467.47;;;10.08;86.18
40502;BME280;29631;49.168;9.848;2022-12-07T14:57:55;96464.22;;;10.13;85.91
40502;BME280;29631;49.168;9.848;2022-12-07T15:00:23;96453.09;;;10.11;86.17
40502;BME280;29631;49.168;9.848;2022-12-07T15:02:50;96456.91;;;10.14;86.04
40502;BME280;29631;49.168;9.848;2022-12-07T15:05:17;96442.38;;;10.06;85.40
40502;BME280;29631;49.168;9.848;2022-12-07T15:07:45;96449.44;;;10.12;85.66
40502;BME280;29631;49.168;9.848;2022-12-07T15:10:25;96445.41;;;10.09;85.92
40502;BME280;29631;49.168;9.848;2022-12-07T15:13:02;96455.31;;;10.13;85.27
40502;BME280;29631;49.168;9.848;2022-12-07T15:15:52;96457.31;;;10.18;85.72
40502;BME280;29631;49.168;9.848;2022-12-07T15:18:20;96437.91;;;10.13;85.96
40502;BME280;29631;49.168;9.848;2022-12-07T15:20:46;96445.19;;;10.17;85.44
40502;BME280;29631;49.168;9.848;2022-12-07T15:23:13;96457.09;;;10.26;85.23
40502;BME280;29631;49.168;9.848;2022-12-07T15:25:47;96449.63;;;10.23;85.40
40502;BME280;29631;49.168;9.848;2022-12-07T15:28:13;96460.91;;;10.30;86.01
40502;BME280;29631;49.168;9.848;2022-12-07T15:30:42;96444.75;;;10.26;85.36
40502;BME280;29631;49.168;9.848;2022-12-07T15:33:11;96443.50;;;10.29;85.77
40502;BME280;29631;49.168;9.848;2022-12-07T15:35:45;96454.44;;;10.32;85.65
40502;BME280;29631;49.168;9.848;2022-12-07T15:38:11;96449.19;;;10.32;86.38
40502;BME280;29631;49.168;9.848;2022-12-07T15:40:36;96442.69;;;10.28;85.48
40502;BME280;29631;49.168;9.848;2022-12-07T15:43:03;96436.22;;;10.24;85.34
40502;BME280;29631;49.168;9.848;2022-12-07T15:45:29;96450.97;;;10.38;86.18